KGNT/GNT METAR and TAF weather

Enter ICAO airport designator
Station Type Date Time Source
KGNT METAR 2019/06/16 20:35 UTC NOAA

KGNT 162035Z AUTO 34006KT 10SM SCT045 SCT055 SCT100 26/01 A3011 RMK AO2 T02550005


Station Type Date Time Source
KGNT Decoded METAR 2019/06/16 20:35 UTC NOAA

GRANTS-MILAN MUNICIPAL AIRPORT , NM, United States (KGNT) 35-10N 107-54W 1987M
Jun 16, 2019 - 04:35 PM EDT / 2019.06.16 2035 UTC
Wind: from the NNW (340 degrees) at 7 MPH (6 KT):0
Visibility: 10 mile(s):0
Sky conditions: partly cloudy
Temperature: 77.9 F (25.5 C)
Dew Point: 32.9 F (0.5 C)
Relative Humidity: 19%
Pressure (altimeter): 30.11 in. Hg (1019 hPa)
ob: KGNT 162035Z AUTO 34006KT 10SM SCT045 SCT055 SCT100 26/01 A3011 RMK AO2 T02550005
cycle: 20

Station Type Date Time Source
KGNT TAF UTC NOAA

Error!

Example: see airport list